Canebrake, West Virginia
Current Conditions -  °F | °C
As of 3:15 PM on Wednesday 28 Jan 2015 (Local Time) from KJFZ Reporting Station
Clear Clear  
Wind Chill: -1°   Ceiling: Unl
Heat Index:   Visibility: 10mi
Dew Point: -9°   Wind: 5mph
Humidity: 50%   Direction: 200°SSW
Pressure: 30.2"   Gusts: NA
Location:  37.2686°N, 81.6669°W
Report Text: KJFZ 282015Z AUTO 20004KT 10SM CLR 01/M09 A3020 RMK AO2 T00091086
Loading
Personal Weather Stations






























Interactive Weather Map New forecast layout! Learn more

10-Day Weather Forecast

Advertisements
Track Severe Weather on mobile